Time;durP1;ratioP1;P1;durP2;ratioP2;P2;SDS_P1;SDS_P2;PMS_P1;PMS_P2;Temp;Humidity;BMP_temperature;BMP_pressure;BME280_temperature;BME280_humidity;BME280_pressure;Samples;Min_cycle;Max_cycle;Signal;HPM_P1;HPM_P2
2022/06/18 00:00:24;;;;;;;17.63;11.73;;;;;;;21.64;60.87;100333.09;5080939;28;20018;-68
2022/06/18 00:02:51;;;;;;;;;;;;;;;21.42;61.03;100330.78;5076099;28;20127;-67
2022/06/18 00:05:20;;;;;;;21.17;12.60;;;;;;;21.59;60.91;100321.16;5075169;28;20441;-67
2022/06/18 00:07:51;;;;;;;19.23;12.45;;;;;;;21.59;61.26;100318.31;5078350;28;20074;-67
2022/06/18 00:10:26;;;;;;;25.65;13.02;;;;;;;21.60;61.21;100317.13;5092628;28;20075;-68
2022/06/18 00:15:41;;;;;;;22.27;13.60;;;;;;;21.46;61.51;100297.63;5092972;28;20079;-67
2022/06/18 00:18:13;;;;;;;20.33;12.75;;;;;;;21.58;61.18;100313.81;5075616;28;20045;-67
2022/06/18 00:20:41;;;;;;;26.95;15.27;;;;;;;21.62;61.51;100306.22;5078368;28;20126;-67
2022/06/18 00:23:15;;;;;;;17.33;12.13;;;;;;;;;;5083881;28;20298;-67
2022/06/18 00:25:47;;;;;;;14.93;12.73;;;;;;;21.61;61.23;100301.75;5094304;28;20138;-67
2022/06/18 00:28:19;;;;;;;22.48;13.80;;;;;;;;;;5087779;28;20135;-68
2022/06/18 00:30:49;;;;;;;19.90;13.35;;;;;;;21.59;61.42;100289.91;5087351;28;20143;-67
2022/06/18 00:33:17;;;;;;;25.60;15.60;;;;;;;21.62;61.55;100306.22;5089256;28;20072;-66
2022/06/18 00:35:45;;;;;;;15.77;11.70;;;;;;;21.59;61.34;100295.56;5088963;28;20075;-67
2022/06/18 00:38:22;;;;;;;23.35;14.27;;;;;;;21.55;61.44;100301.16;5092837;28;20178;-68
2022/06/18 00:40:49;;;;;;;21.00;13.70;;;;;;;21.59;61.55;100306.94;5089262;28;20051;-67
2022/06/18 00:43:20;;;;;;;35.55;21.83;;;;;;;21.58;61.13;100302.47;5084680;28;20570;-67
2022/06/18 00:45:51;;;;;;;24.70;16.58;;;;;;;21.58;61.38;100300.44;5088579;28;20138;-68
2022/06/18 00:48:26;;;;;;;22.77;15.57;;;;;;;21.51;61.09;100294.53;5090655;28;20147;-67
2022/06/18 00:51:03;;;;;;;27.05;18.67;;;;;;;21.56;61.20;100297.13;5088910;28;20131;-67
2022/06/18 00:54:01;;;;;;;25.85;19.90;;;;;;;21.47;61.53;100302.13;5090439;28;20147;-67
2022/06/18 00:57:07;;;;;;;36.38;21.88;;;;;;;21.44;61.50;100291.50;5084885;28;20055;-68
2022/06/18 01:00:03;;;;;;;31.13;18.00;;;;;;;21.47;61.74;100311.50;5086297;28;20131;-68
2022/06/18 01:02:41;;;;;;;24.50;16.13;;;;;;;21.44;61.63;100300.03;5074546;28;20132;-67
2022/06/18 01:05:36;;;;;;;26.70;18.05;;;;;;;21.38;61.52;100296.59;5088207;28;20052;-67
2022/06/18 01:08:24;;;;;;;27.88;19.13;;;;;;;21.33;61.69;100293.97;5092834;28;20510;-67
2022/06/18 01:10:55;;;;;;;28.80;19.77;;;;;;;21.41;61.45;100298.72;5082463;28;20150;-66
2022/06/18 01:13:27;;;;;;;25.27;17.92;;;;;;;21.37;61.66;100282.72;5088284;28;20127;-67
2022/06/18 01:15:55;;;;;;;28.35;18.65;;;;;;;21.36;61.83;100284.75;5082828;28;20095;-68
2022/06/18 01:18:23;;;;;;;25.92;15.38;;;;;;;21.36;61.64;100293.28;5078019;28;20379;-68
2022/06/18 01:21:02;;;;;;;19.45;15.38;;;;;;;21.28;61.87;100277.19;5084521;28;20447;-68
2022/06/18 01:23:46;;;;;;;24.50;14.93;;;;;;;21.26;61.79;100271.88;5079233;28;20127;-68
2022/06/18 01:26:13;;;;;;;25.48;13.43;;;;;;;21.22;62.07;100276.59;5085218;28;20131;-68
2022/06/18 01:28:40;;;;;;;22.88;14.80;;;;;;;21.27;62.13;100286.91;5084686;28;20049;-69
2022/06/18 01:31:08;;;;;;;19.77;14.48;;;;;;;21.25;61.92;100294.94;5085769;28;20071;-68
2022/06/18 01:33:36;;;;;;;18.65;14.13;;;;;;;21.17;62.44;100273.22;5089704;28;20076;-69
2022/06/18 01:36:07;;;;;;;21.55;13.93;;;;;;;21.15;62.30;100276.38;5078818;28;20135;-69
2022/06/18 01:38:39;;;;;;;18.38;13.25;;;;;;;21.25;62.30;100300.63;5087403;28;20071;-68
2022/06/18 01:44:35;;;;;;;19.80;13.32;;;;;;;21.19;62.13;100305.72;5076986;28;20479;-69
2022/06/18 01:47:27;;;;;;;22.42;13.02;;;;;;;21.17;62.26;100307.28;5086017;28;20079;-67
2022/06/18 01:50:26;;;;;;;20.58;13.05;;;;;;;21.14;62.36;100313.69;5079696;28;20072;-67
2022/06/18 01:52:59;;;;;;;24.45;15.27;;;;;;;21.14;62.79;100308.00;5076939;28;20578;-68
2022/06/18 01:55:32;;;;;;;24.90;13.05;;;;;;;21.09;62.57;100306.22;5080821;28;20132;-68
2022/06/18 01:58:09;;;;;;;20.90;13.13;;;;;;;21.07;62.93;100308.59;5084086;28;20146;-67
2022/06/18 02:00:36;;;;;;;24.98;13.25;;;;;;;21.04;62.97;100317.81;5080801;28;20067;-67
2022/06/18 02:03:04;;;;;;;18.10;13.40;;;;;;;20.96;63.04;100318.78;5083917;28;20087;-67
2022/06/18 02:05:32;;;;;;;23.35;12.52;;;;;;;21.06;63.35;100333.31;5084686;28;20059;-67
2022/06/18 02:07:59;;;;;;;17.38;11.65;;;;;;;20.95;63.63;100317.13;5082568;28;20468;-68
2022/06/18 02:10:32;;;;;;;22.55;12.77;;;;;;;21.04;63.03;100327.16;5076919;28;20140;-67
2022/06/18 02:13:02;;;;;;;19.13;12.68;;;;;;;20.88;63.03;100299.88;5077259;28;20578;-67
2022/06/18 02:15:34;;;;;;;21.38;11.95;;;;;;;20.93;63.17;100303.28;5081284;28;20162;-69
2022/06/18 02:18:06;;;;;;;17.45;12.15;;;;;;;21.06;63.32;100321.97;5077927;28;20127;-68
2022/06/18 02:20:42;;;;;;;22.48;12.82;;;;;;;21.10;63.23;100324.09;5077672;28;20139;-69
2022/06/18 02:23:09;;;;;;;13.82;11.73;;;;;;;20.93;63.24;100303.28;5080770;28;20083;-69
2022/06/18 02:25:36;;;;;;;18.20;11.82;;;;;;;21.07;63.33;100319.94;5080481;28;20142;-68
2022/06/18 02:28:14;;;;;;;17.30;11.50;;;;;;;21.10;63.12;100319.25;5082702;28;20131;-69
2022/06/18 02:30:41;;;;;;;16.58;12.80;;;;;;;21.04;63.38;100310.13;5086045;28;20048;-68
2022/06/18 02:33:20;;;;;;;17.60;13.45;;;;;;;21.08;63.28;100310.25;5086831;28;20043;-67
2022/06/18 02:35:47;;;;;;;16.83;13.18;;;;;;;21.10;63.42;100326.94;5081776;28;20532;-67
2022/06/18 02:38:18;;;;;;;19.45;13.52;;;;;;;21.14;63.29;100319.34;5080792;28;20165;-68
2022/06/18 02:40:45;;;;;;;23.05;15.10;;;;;;;21.15;63.46;100318.16;5086770;28;20127;-67
2022/06/18 02:43:13;;;;;;;22.13;13.82;;;;;;;20.89;63.68;100276.81;5076274;28;20130;-68
2022/06/18 02:45:43;;;;;;;19.42;14.35;;;;;;;21.11;63.68;100320.06;5073676;28;20147;-67
2022/06/18 02:48:10;;;;;;;17.30;12.85;;;;;;;21.08;63.57;100323.63;5080755;28;20048;-67
2022/06/18 02:50:41;;;;;;;20.90;12.82;;;;;;;21.12;63.73;100321.72;5082659;28;20044;-67
2022/06/18 02:53:11;;;;;;;26.40;13.63;;;;;;;21.15;63.77;100321.00;5081858;28;20082;-68
2022/06/18 02:55:40;;;;;;;21.40;13.60;;;;;;;21.18;63.94;100323.13;5082478;28;20560;-68
2022/06/18 02:58:12;;;;;;;21.90;12.82;;;;;;;20.92;63.56;100261.06;5081254;28;20086;-69
2022/06/18 03:00:44;;;;;;;21.98;13.27;;;;;;;21.32;63.91;100309.34;5086616;28;20082;-69
2022/06/18 03:03:13;;;;;;;18.58;13.40;;;;;;;21.40;63.44;100293.38;5084031;28;20044;-69
2022/06/18 03:05:41;;;;;;;18.17;14.10;;;;;;;21.46;63.30;100281.41;5084617;28;20048;-68
2022/06/18 03:08:08;;;;;;;19.15;12.80;;;;;;;21.32;63.12;100251.72;5082440;28;20143;-68
2022/06/18 03:13:21;;;;;;;19.52;12.77;;;;;;;21.65;62.86;100294.13;5079021;28;20075;-67
2022/06/18 03:15:52;;;;;;;18.27;13.25;;;;;;;21.67;62.97;100280.38;5079781;28;20071;-66
2022/06/18 03:18:21;;;;;;;19.85;12.98;;;;;;;21.68;62.45;100277.19;5077101;28;20135;-67
2022/06/18 03:20:56;;;;;;;26.15;13.65;;;;;;;21.71;62.66;100281.31;5085985;28;20132;-68
2022/06/18 03:23:23;;;;;;;19.10;13.20;;;;;;;21.63;62.62;100262.41;5086810;28;20044;-68
2022/06/18 03:25:51;;;;;;;29.05;14.10;;;;;;;21.70;62.58;100274.78;5092786;28;20123;-67
2022/06/18 03:28:20;;;;;;;19.08;13.63;;;;;;;21.59;62.50;100252.94;5092451;28;20126;-67
2022/06/18 03:30:46;;;;;;;14.03;12.53;;;;;;;21.52;62.88;100267.78;5088901;28;20541;-67
2022/06/18 03:33:14;;;;;;;17.48;12.63;;;;;;;21.59;62.66;100279.34;5087536;28;20353;-69
2022/06/18 03:35:44;;;;;;;21.90;12.85;;;;;;;21.51;62.76;100266.13;5088077;28;20075;-68
2022/06/18 03:38:13;;;;;;;21.48;12.25;;;;;;;21.68;63.08;100293.41;5086329;28;20086;-69
2022/06/18 03:40:41;;;;;;;14.65;12.05;;;;;;;21.69;62.80;100278.00;5089670;28;20132;-68
2022/06/18 03:43:08;;;;;;;20.73;13.07;;;;;;;21.68;62.97;100296.25;5081597;28;20455;-69
2022/06/18 03:45:43;;;;;;;22.48;14.20;;;;;;;21.65;62.48;100294.13;5085303;28;20076;-68
2022/06/18 03:48:52;;;;;;;23.98;12.93;;;;;;;21.60;62.57;100295.19;5084637;28;20094;-67
2022/06/18 03:51:20;;;;;;;21.23;12.70;;;;;;;21.52;62.86;100285.66;5081280;28;20136;-66
2022/06/18 03:53:48;;;;;;;19.77;12.35;;;;;;;21.49;63.05;100285.53;5075718;28;20473;-67
2022/06/18 03:56:18;;;;;;;20.65;12.52;;;;;;;21.48;63.11;100293.25;5081974;28;20547;-67
2022/06/18 03:58:47;;;;;;;21.40;11.55;;;;;;;21.41;63.58;100273.16;5077557;28;20052;-67
2022/06/18 04:01:17;;;;;;;14.98;11.30;;;;;;;21.52;63.07;100299.84;5074499;28;20131;-67
2022/06/18 04:03:43;;;;;;;;;;;;;;;21.28;63.54;100309.25;5092036;28;20087;-67
2022/06/18 04:06:10;;;;;;;19.65;11.10;;;;;;;21.24;63.25;100287.63;5088806;28;19958;-67
2022/06/18 04:08:37;;;;;;;14.98;11.77;;;;;;;21.34;63.49;100309.88;5084420;28;20435;-66
2022/06/18 04:11:04;;;;;;;18.30;11.90;;;;;;;21.38;63.31;100312.81;5088404;28;20078;-67
2022/06/18 04:13:31;;;;;;;13.85;10.50;;;;;;;21.30;63.24;100286.19;5096800;28;20409;-68
2022/06/18 04:15:58;;;;;;;16.30;10.60;;;;;;;21.46;62.96;100309.00;5080142;28;20410;-67
2022/06/18 04:18:25;;;;;;;18.80;10.80;;;;;;;21.41;62.91;100300.75;5078183;28;20052;-67
2022/06/18 04:20:53;;;;;;;14.02;9.57;;;;;;;21.47;63.03;100297.28;5088656;28;20075;-67
2022/06/18 04:23:21;;;;;;;13.57;10.25;;;;;;;21.48;62.83;100307.44;5090264;28;20080;-67
2022/06/18 04:25:47;;;;;;;23.38;11.13;;;;;;;21.45;63.03;100311.00;5089036;28;20138;-67
2022/06/18 04:28:17;;;;;;;14.52;10.13;;;;;;;21.46;62.97;100294.78;5091132;28;20048;-68
2022/06/18 04:30:44;;;;;;;14.25;9.95;;;;;;;21.49;63.19;100297.72;5091297;28;20239;-68
2022/06/18 04:33:11;;;;;;;19.80;10.95;;;;;;;21.46;62.69;100287.09;5089185;28;20076;-68
2022/06/18 04:35:43;;;;;;;17.67;10.30;;;;;;;21.41;62.89;100281.69;5087007;28;20058;-69
2022/06/18 04:38:12;;;;;;;19.77;11.77;;;;;;;21.58;63.00;100296.78;5088617;28;20486;-69
2022/06/18 04:40:39;;;;;;;15.80;9.70;;;;;;;21.49;62.46;100279.88;5085563;28;20056;-69
2022/06/18 04:43:23;;;;;;;12.57;9.38;;;;;;;21.64;62.42;100306.66;5092175;28;20047;-69
2022/06/18 04:45:50;;;;;;;19.25;10.63;;;;;;;21.68;62.42;100304.78;5078116;28;20142;-67
2022/06/18 04:48:16;;;;;;;18.63;10.23;;;;;;;21.59;62.14;100302.09;5092519;28;20064;-66
2022/06/18 04:50:43;;;;;;;14.25;9.10;;;;;;;21.63;62.30;100313.56;5085424;28;20083;-66
2022/06/18 04:53:11;;;;;;;12.43;10.18;;;;;;;21.62;62.53;100303.38;5082077;28;20076;-66
2022/06/18 04:55:38;;;;;;;22.80;10.77;;;;;;;21.62;62.66;100306.22;5078576;28;20560;-67
2022/06/18 04:58:05;;;;;;;15.90;10.85;;;;;;;21.50;62.34;100305.09;5079043;28;20134;-66
2022/06/18 05:00:33;;;;;;;18.38;9.60;;;;;;;21.47;62.66;100302.97;5094135;28;20132;-65
2022/06/18 05:03:01;;;;;;;17.23;9.30;;;;;;;21.57;62.41;100309.31;5085816;28;20089;-70
2022/06/18 05:05:29;;;;;;;15.13;10.43;;;;;;;21.60;62.54;100306.56;5082226;28;20135;-69
2022/06/18 05:07:56;;;;;;;10.75;9.70;;;;;;;21.41;62.27;100267.47;5078140;28;20080;-69
2022/06/18 05:10:23;;;;;;;13.43;9.13;;;;;;;21.58;62.31;100308.13;5079031;28;20106;-69
2022/06/18 05:12:50;;;;;;;10.93;8.82;;;;;;;21.65;62.09;100306.31;5082359;28;20583;-68
2022/06/18 05:15:17;;;;;;;11.85;9.27;;;;;;;21.65;62.32;100299.81;5078501;28;20131;-68
2022/06/18 05:17:45;;;;;;;11.55;8.98;;;;;;;21.60;61.99;100285.84;5082692;28;20407;-69
2022/06/18 05:20:20;;;;;;;11.55;8.60;;;;;;;21.55;61.77;100294.66;5079767;28;20072;-67
2022/06/18 05:22:48;;;;;;;18.05;9.57;;;;;;;21.61;61.90;100301.75;5088024;28;20075;-67
2022/06/18 05:25:16;;;;;;;12.63;8.82;;;;;;;21.59;61.34;100304.09;5092977;28;20083;-68
2022/06/18 05:27:45;;;;;;;14.00;9.35;;;;;;;21.60;61.70;100305.75;5084750;28;20123;-67
2022/06/18 05:30:15;;;;;;;13.80;9.68;;;;;;;21.58;61.71;100297.59;5084459;28;20130;-67
2022/06/18 05:32:42;;;;;;;9.52;8.75;;;;;;;21.50;61.68;100296.56;5078768;28;20447;-67
2022/06/18 05:35:11;;;;;;;10.18;9.10;;;;;;;21.51;61.67;100288.88;5083021;28;20044;-67
2022/06/18 05:37:38;;;;;;;11.32;8.70;;;;;;;21.57;61.52;100292.25;5078062;28;20048;-67
2022/06/18 05:40:06;;;;;;;11.50;8.40;;;;;;;21.49;61.72;100280.69;5081613;28;20119;-67
2022/06/18 05:42:33;;;;;;;16.02;8.52;;;;;;;21.49;61.51;100297.72;5086864;28;20091;-67
2022/06/18 05:45:01;;;;;;;11.98;9.32;;;;;;;21.49;61.73;100296.91;5087569;28;20101;-67
2022/06/18 05:47:33;;;;;;;14.23;10.25;;;;;;;21.46;61.46;100300.47;5071462;28;20478;-70
2022/06/18 05:50:01;;;;;;;14.82;10.07;;;;;;;21.45;61.80;100296.81;5087466;28;20083;-69
2022/06/18 05:52:29;;;;;;;10.23;8.57;;;;;;;21.43;61.46;100296.31;5073369;28;20493;-68
2022/06/18 05:54:57;;;;;;;21.85;10.15;;;;;;;21.48;61.90;100304.59;5077855;28;20049;-68
2022/06/18 05:57:25;;;;;;;11.48;9.38;;;;;;;21.51;61.74;100306.72;5077586;28;20048;-68
2022/06/18 05:59:51;;;;;;;9.90;9.07;;;;;;;21.58;61.74;100308.13;5085320;28;20083;-68
2022/06/18 06:02:20;;;;;;;12.88;9.48;;;;;;;21.67;61.56;100300.25;5073900;28;20044;-69
2022/06/18 06:04:47;;;;;;;11.40;9.25;;;;;;;21.85;61.87;100304.47;5086938;28;20917;-69
2022/06/18 06:07:17;;;;;;;9.88;8.93;;;;;;;22.03;61.80;100304.13;5074582;28;20063;-67
2022/06/18 06:12:30;;;;;;;9.73;8.77;;;;;;;22.36;61.04;100321.72;5080501;28;20143;-68
2022/06/18 06:14:57;;;;;;;15.35;10.50;;;;;;;22.49;61.13;100316.75;5084630;28;20091;-69
2022/06/18 06:17:25;;;;;;;11.25;9.15;;;;;;;22.35;60.91;100271.69;5080705;28;20079;-69
2022/06/18 06:20:00;;;;;;;13.60;8.38;;;;;;;22.73;60.05;100303.53;5079360;28;20128;-69
2022/06/18 06:22:27;;;;;;;15.80;9.25;;;;;;;22.79;60.16;100307.75;5076032;28;20209;-68
2022/06/18 06:24:54;;;;;;;12.05;8.63;;;;;;;22.83;59.81;100303.78;5076821;28;20140;-68
2022/06/18 06:27:21;;;;;;;15.25;13.25;;;;;;;22.85;59.73;100298.56;5084459;28;20467;-68
2022/06/18 06:29:48;;;;;;;19.63;9.13;;;;;;;22.74;59.53;100288.94;5080781;28;20486;-68
2022/06/18 06:32:15;;;;;;;12.82;8.45;;;;;;;22.75;59.67;100292.63;5065850;28;20060;-68
2022/06/18 06:34:42;;;;;;;9.48;8.52;;;;;;;22.64;59.27;100289.50;5072733;28;20093;-67
2022/06/18 06:37:10;;;;;;;10.48;8.98;;;;;;;22.73;59.64;100309.22;5082301;28;20076;-69
2022/06/18 06:39:37;;;;;;;11.43;8.70;;;;;;;22.68;59.62;100308.31;5082828;28;20052;-69
2022/06/18 06:42:04;;;;;;;17.42;9.10;;;;;;;22.76;59.11;100320.69;5077656;28;20201;-69
2022/06/18 06:44:31;;;;;;;11.00;9.13;;;;;;;22.67;59.25;100317.22;5076754;28;20474;-69
2022/06/18 06:46:59;;;;;;;14.65;10.48;;;;;;;22.69;59.42;100312.81;5087028;28;20055;-69
2022/06/18 06:49:27;;;;;;;15.45;9.45;;;;;;;22.66;59.17;100312.72;5074318;28;20102;-68
2022/06/18 06:51:54;;;;;;;13.15;8.65;;;;;;;22.62;59.16;100320.34;5085659;28;20150;-69
2022/06/18 06:54:21;;;;;;;9.70;8.70;;;;;;;22.42;59.67;100316.56;5089472;28;20055;-69
2022/06/18 06:59:33;;;;;;;13.25;9.43;;;;;;;22.45;59.65;100333.75;5080361;28;20108;-69
2022/06/18 07:02:02;;;;;;;13.05;9.80;;;;;;;22.46;59.39;100338.25;5079965;28;20135;-69
2022/06/18 07:04:29;;;;;;;21.37;10.10;;;;;;;22.40;59.79;100330.34;5084133;28;20044;-68
2022/06/18 07:06:57;;;;;;;11.20;9.82;;;;;;;22.40;59.86;100342.56;5083590;28;20296;-68
2022/06/18 07:09:25;;;;;;;11.75;10.30;;;;;;;22.25;59.76;100320.59;5089003;28;20059;-69
2022/06/18 07:11:52;;;;;;;14.40;9.00;;;;;;;22.38;59.85;100344.94;5077806;28;20139;-68
2022/06/18 07:14:19;;;;;;;11.00;9.20;;;;;;;22.33;59.77;100342.38;5070879;28;20087;-69
2022/06/18 07:16:53;;;;;;;15.18;10.20;;;;;;;22.19;59.68;100325.75;5077929;28;20056;-69
2022/06/18 07:19:20;;;;;;;11.90;10.02;;;;;;;22.34;59.50;100338.31;5075938;28;20427;-68
2022/06/18 07:21:50;;;;;;;19.45;9.55;;;;;;;22.36;59.71;100327.41;5068821;28;20136;-70
2022/06/18 07:24:17;;;;;;;12.25;11.05;;;;;;;22.39;59.64;100329.53;5081368;28;20074;-69
2022/06/18 07:26:45;;;;;;;10.05;9.00;;;;;;;22.41;59.76;100358.44;5076119;28;20087;-69
2022/06/18 07:29:13;;;;;;;11.30;8.95;;;;;;;22.33;59.27;100353.75;5072686;28;20113;-69
2022/06/18 07:31:40;;;;;;;13.77;9.82;;;;;;;22.34;59.30;100348.88;5075908;28;20155;-69
2022/06/18 07:34:07;;;;;;;19.77;9.05;;;;;;;22.11;59.49;100340.09;5076514;28;20086;-68
2022/06/18 07:36:34;;;;;;;10.57;8.98;;;;;;;22.19;59.62;100353.38;5077273;28;20500;-69
2022/06/18 07:39:01;;;;;;;9.35;8.45;;;;;;;22.36;59.49;100375.78;5068593;28;20481;-68
2022/06/18 07:41:41;;;;;;;13.13;10.50;;;;;;;22.40;59.49;100353.94;5073676;28;20048;-69
2022/06/18 07:44:09;;;;;;;;;;;;;;;22.47;59.80;100351.28;5089413;28;20463;-69
2022/06/18 07:46:36;;;;;;;12.50;7.40;;;;;;;22.54;59.40;100346.97;5081918;28;19924;-69
2022/06/18 07:49:05;;;;;;;13.68;9.35;;;;;;;22.77;58.66;100355.69;5079414;28;20064;-70
2022/06/18 07:51:32;;;;;;;12.27;8.73;;;;;;;22.88;58.42;100354.78;5070526;28;20180;-69
2022/06/18 07:53:59;;;;;;;15.73;9.32;;;;;;;23.42;58.03;100347.53;5077306;28;20143;-70
2022/06/18 07:56:26;;;;;;;16.13;8.02;;;;;;;23.95;57.56;100352.75;5077679;28;20506;-69
2022/06/18 07:58:53;;;;;;;11.65;7.85;;;;;;;24.28;56.96;100355.03;5084011;28;20574;-69
2022/06/18 08:01:20;;;;;;;10.73;7.38;;;;;;;24.49;56.50;100346.06;5078411;28;20151;-69
2022/06/18 08:03:46;;;;;;;9.18;6.93;;;;;;;24.35;55.70;100349.47;5090645;28;20459;-69
2022/06/18 08:06:13;;;;;;;10.00;7.30;;;;;;;24.11;56.08;100342.06;5083034;28;20055;-76
2022/06/18 08:08:40;;;;;;;11.80;8.10;;;;;;;23.98;55.58;100334.88;5074197;28;20082;-70
2022/06/18 08:11:11;;;;;;;10.68;7.85;;;;;;;23.81;55.74;100330.47;5074184;28;20438;-70
2022/06/18 08:13:38;;;;;;;10.15;8.35;;;;;;;23.52;56.19;100329.84;5080675;28;20147;-70
2022/06/18 08:16:06;;;;;;;12.55;8.65;;;;;;;23.56;56.46;100322.19;5076866;28;20052;-69
2022/06/18 08:18:34;;;;;;;14.88;8.52;;;;;;;23.52;56.09;100306.19;5075594;28;20139;-70
2022/06/18 08:21:15;;;;;;;13.18;9.88;;;;;;;23.58;56.21;100313.25;5080362;28;20525;-68
2022/06/18 08:23:44;;;;;;;11.10;7.72;;;;;;;23.61;56.47;100316.16;5083530;28;20135;-70
2022/06/18 08:26:11;;;;;;;11.82;7.80;;;;;;;23.67;56.26;100325.25;5077085;28;20131;-69
2022/06/18 08:28:39;;;;;;;9.98;8.13;;;;;;;23.67;55.85;100302.44;5077295;28;20078;-69
2022/06/18 08:31:07;;;;;;;10.65;9.55;;;;;;;24.01;55.59;100322.72;5081282;28;20134;-70
2022/06/18 08:33:34;;;;;;;13.27;10.10;;;;;;;24.08;55.18;100315.13;5090155;28;20056;-69
2022/06/18 08:36:05;;;;;;;17.38;9.90;;;;;;;24.30;55.10;100326.94;5083088;28;20076;-69
2022/06/18 08:38:33;;;;;;;9.10;8.30;;;;;;;24.27;55.34;100300.00;5082941;28;20083;-70
2022/06/18 08:41:16;;;;;;;17.27;8.30;;;;;;;24.34;55.47;100297.28;5077109;28;20453;-70
2022/06/18 08:44:17;;;;;;;11.15;7.85;;;;;;;24.52;55.06;100305.34;5084724;28;20134;-70
2022/06/18 08:46:54;;;;;;;12.07;8.18;;;;;;;24.49;54.64;100312.63;5084731;28;20094;-69
2022/06/18 08:49:48;;;;;;;7.95;6.88;;;;;;;24.45;55.07;100302.38;5086010;28;20088;-69
2022/06/18 08:52:23;;;;;;;10.07;7.82;;;;;;;24.49;54.75;100309.78;5086858;28;20044;-70
2022/06/18 08:54:52;;;;;;;9.95;7.72;;;;;;;24.46;54.60;100312.56;5085766;28;20626;-71
2022/06/18 08:57:39;;;;;;;;;;;;;;;24.24;55.27;100315.03;5088742;28;20056;-68
2022/06/18 09:00:24;;;;;;;8.60;7.65;;;;;;;24.20;54.77;100314.09;5083165;28;20011;-70
2022/06/18 09:03:05;;;;;;;14.40;8.13;;;;;;;24.14;55.01;100332.75;5084804;28;20052;-69
2022/06/18 09:06:24;;;;;;;9.98;7.75;;;;;;;24.03;55.19;100320.28;5080919;28;20581;-69
2022/06/18 09:08:51;;;;;;;14.25;8.27;;;;;;;24.07;54.68;100330.59;5065060;28;20484;-69
2022/06/18 09:11:23;;;;;;;9.23;8.40;;;;;;;23.95;54.54;100307.09;5077183;28;20074;-69
2022/06/18 09:13:57;;;;;;;9.70;8.15;;;;;;;23.67;54.15;100279.66;5080189;28;20105;-69
2022/06/18 09:16:32;;;;;;;8.15;7.32;;;;;;;23.72;54.45;100273.66;5089099;28;20148;-68
2022/06/18 09:19:03;;;;;;;9.25;8.20;;;;;;;24.14;54.03;100304.22;5071944;28;20060;-69
2022/06/18 09:21:52;;;;;;;7.45;6.75;;;;;;;24.31;53.81;100278.06;5081655;28;20044;-69
2022/06/18 09:24:36;;;;;;;9.00;8.25;;;;;;;24.50;53.74;100304.91;5093055;28;20500;-68
2022/06/18 09:27:13;;;;;;;8.15;6.90;;;;;;;24.62;53.52;100295.31;5079534;28;20449;-70
2022/06/18 09:29:47;;;;;;;8.25;7.28;;;;;;;24.73;53.04;100305.69;5075805;28;20573;-68
2022/06/18 09:32:35;;;;;;;9.57;7.65;;;;;;;24.80;53.27;100287.88;5074820;28;20563;-69
2022/06/18 09:35:14;;;;;;;10.10;7.57;;;;;;;24.95;52.84;100286.03;5075655;28;20076;-69
2022/06/18 09:37:58;;;;;;;8.25;7.30;;;;;;;24.93;52.81;100288.47;5075313;28;20447;-69
2022/06/18 09:40:36;;;;;;;9.32;8.50;;;;;;;24.93;52.65;100288.47;5072682;28;20270;-69
2022/06/18 09:43:26;;;;;;;17.60;7.40;;;;;;;24.70;52.26;100269.34;5076249;28;20136;-68
2022/06/18 09:45:59;;;;;;;9.90;7.85;;;;;;;24.64;52.18;100270.06;5073178;28;20074;-69
2022/06/18 09:48:26;;;;;;;11.13;7.72;;;;;;;24.59;52.59;100294.06;5079240;28;20392;-69
2022/06/18 09:51:10;;;;;;;8.95;8.00;;;;;;;24.46;52.69;100295.44;5084401;28;20072;-69
2022/06/18 09:53:42;;;;;;;11.18;10.20;;;;;;;24.52;52.60;100291.91;5070889;28;20147;-69
2022/06/18 09:56:26;;;;;;;9.40;8.48;;;;;;;24.38;52.26;100285.09;5086322;28;20075;-69
2022/06/18 09:58:58;;;;;;;9.60;8.82;;;;;;;24.51;52.67;100295.97;5088337;28;20481;-69
2022/06/18 10:01:34;;;;;;;11.48;10.32;;;;;;;24.43;52.69;100287.66;5072543;28;20131;-70
2022/06/18 10:06:57;;;;;;;9.25;8.35;;;;;;;24.50;53.01;100282.88;5087091;28;20435;-69
2022/06/18 10:09:42;;;;;;;8.82;8.02;;;;;;;24.60;52.43;100301.41;5077418;28;20106;-69
2022/06/18 10:12:26;;;;;;;19.52;8.45;;;;;;;24.49;52.51;100286.94;5097938;28;20044;-70
2022/06/18 10:14:59;;;;;;;12.27;8.73;;;;;;;24.62;52.90;100287.59;5074091;28;20079;-68
2022/06/18 10:17:31;;;;;;;9.07;8.10;;;;;;;25.00;52.44;100305.72;5076052;28;20072;-69
2022/06/18 10:20:15;;;;;;;9.52;8.57;;;;;;;25.17;52.33;100299.47;5073379;28;20135;-70
2022/06/18 10:23:03;;;;;;;9.93;8.85;;;;;;;25.71;51.75;100286.72;5086495;28;20047;-70
2022/06/18 10:25:45;;;;;;;11.18;8.82;;;;;;;26.15;50.98;100280.31;5074947;28;20064;-69
2022/06/18 10:28:34;;;;;;;9.35;8.43;;;;;;;26.19;50.41;100284.00;5082680;28;20079;-69
2022/06/18 10:31:11;;;;;;;11.83;9.00;;;;;;;26.05;50.54;100226.66;5077783;28;20080;-69
2022/06/18 10:34:17;;;;;;;10.07;7.65;;;;;;;26.78;49.99;100263.28;5086597;28;20048;-70
2022/06/18 10:37:02;;;;;;;9.10;8.27;;;;;;;27.37;49.43;100269.81;5090953;28;20075;-69
2022/06/18 10:39:46;;;;;;;10.85;8.52;;;;;;;27.98;48.69;100264.31;5078216;28;20103;-69
2022/06/18 10:42:16;;;;;;;12.30;9.25;;;;;;;28.42;47.27;100266.88;5080718;28;20088;-68
2022/06/18 10:45:13;;;;;;;9.20;8.43;;;;;;;28.62;46.81;100263.59;5079361;28;20059;-70
2022/06/18 10:47:44;;;;;;;9.32;8.32;;;;;;;28.58;46.51;100240.59;5071576;28;20613;-69
2022/06/18 10:50:15;;;;;;;9.25;8.50;;;;;;;28.87;45.47;100264.38;5074965;28;20090;-69
2022/06/18 10:52:44;;;;;;;10.63;9.45;;;;;;;28.94;44.22;100257.81;5076555;28;20127;-70
2022/06/18 10:55:21;;;;;;;13.88;12.15;;;;;;;29.00;44.35;100262.75;5075832;28;20087;-69
2022/06/18 10:57:49;;;;;;;9.38;8.32;;;;;;;28.91;43.33;100268.06;5082676;28;20087;-68
2022/06/18 11:00:23;;;;;;;9.47;8.43;;;;;;;28.84;43.67;100270.16;5078813;28;20117;-70
2022/06/18 11:02:56;;;;;;;8.60;7.90;;;;;;;28.65;44.23;100265.63;5077709;28;20784;-69
2022/06/18 11:05:29;;;;;;;11.70;10.75;;;;;;;28.94;43.70;100272.19;5075186;28;20486;-69
2022/06/18 11:08:00;;;;;;;9.90;8.88;;;;;;;28.73;43.52;100270.97;5081054;28;20091;-69
2022/06/18 11:10:29;;;;;;;9.05;8.13;;;;;;;28.78;43.51;100273.41;5071103;28;20156;-69
2022/06/18 11:12:57;;;;;;;8.98;7.72;;;;;;;28.63;43.60;100265.25;5081031;28;20131;-69
2022/06/18 11:15:44;;;;;;;11.13;10.13;;;;;;;28.51;43.86;100252.94;5070277;28;20056;-70
2022/06/18 11:18:18;;;;;;;12.60;11.32;;;;;;;28.85;43.62;100261.09;5073801;28;20433;-69
2022/06/18 11:21:04;;;;;;;10.10;8.88;;;;;;;28.86;43.96;100242.63;5073943;28;20708;-70
2022/06/18 11:23:35;;;;;;;10.27;9.30;;;;;;;29.00;43.51;100238.94;5084946;28;20888;-69
2022/06/18 11:26:25;;;;;;;12.18;9.70;;;;;;;29.18;43.12;100213.00;5078123;28;20048;-70
2022/06/18 11:28:56;;;;;;;8.50;7.63;;;;;;;29.18;42.80;100233.94;5079462;28;20094;-69
2022/06/18 11:31:31;;;;;;;13.27;8.95;;;;;;;28.91;42.44;100229.88;5077505;28;20079;-69
2022/06/18 11:34:02;;;;;;;10.52;8.90;;;;;;;29.13;41.85;100225.78;5081445;28;20056;-70
2022/06/18 11:36:47;;;;;;;8.75;7.85;;;;;;;29.35;41.89;100228.56;5087799;28;20109;-70
2022/06/18 11:39:38;;;;;;;9.25;8.45;;;;;;;29.20;41.97;100233.56;5091591;28;20089;-69
2022/06/18 11:42:26;;;;;;;8.32;7.50;;;;;;;29.25;42.47;100227.38;5089668;28;20537;-70
2022/06/18 11:45:27;;;;;;;9.07;7.93;;;;;;;29.45;42.10;100217.00;5088861;28;20079;-70
2022/06/18 11:48:13;;;;;;;8.57;7.85;;;;;;;29.37;41.66;100234.69;5080194;28;20052;-69
2022/06/18 11:51:05;;;;;;;9.80;9.13;;;;;;;29.51;41.03;100215.34;5080843;28;20499;-69
2022/06/18 11:53:37;;;;;;;8.73;7.90;;;;;;;29.63;40.96;100237.09;5079853;28;20083;-68
2022/06/18 11:56:15;;;;;;;8.75;8.05;;;;;;;30.02;40.04;100213.03;5074995;28;20083;-69
2022/06/18 11:58:51;;;;;;;10.30;9.45;;;;;;;30.30;40.34;100228.47;5082181;28;20048;-68